createdAt,value
2019-02-26T00:01:59.920Z,100583.97
2019-02-26T00:05:05.671Z,100577.52
2019-02-26T00:08:11.468Z,100569.93
2019-02-26T00:11:17.246Z,100566.64
2019-02-26T00:14:24.854Z,100562.52
2019-02-26T00:17:30.540Z,100561.30
2019-02-26T00:20:37.398Z,100559.52
2019-02-26T00:23:44.381Z,100549.11
2019-02-26T00:26:51.248Z,100537.58
2019-02-26T00:29:57.195Z,100533.47
2019-02-26T00:33:05.176Z,100538.28
2019-02-26T00:36:11.229Z,100541.52
2019-02-26T00:39:17.930Z,100544.19
2019-02-26T00:42:24.345Z,100536.30
2019-02-26T00:45:32.325Z,100521.66
2019-02-26T00:48:40.780Z,100520.45
2019-02-26T00:51:48.293Z,100512.38
2019-02-26T00:54:57.608Z,100500.38
2019-02-26T00:58:03.291Z,100502.97
2019-02-26T01:01:12.230Z,100488.56
2019-02-26T01:04:17.445Z,100475.56
2019-02-26T01:07:23.923Z,100474.63
2019-02-26T01:10:30.876Z,100470.69
2019-02-26T01:13:36.738Z,100450.72
2019-02-26T01:16:43.790Z,100447.78
2019-02-26T01:19:50.195Z,100429.72
2019-02-26T01:22:55.966Z,100432.52
2019-02-26T01:26:01.735Z,100421.58
2019-02-26T01:29:07.609Z,100417.05
2019-02-26T01:32:15.605Z,100408.58
2019-02-26T01:35:21.033Z,100392.80
2019-02-26T01:38:26.807Z,100396.73
2019-02-26T01:41:32.589Z,100391.61
2019-02-26T01:44:39.907Z,100395.39
2019-02-26T01:47:48.194Z,100397.41
2019-02-26T01:50:54.488Z,100400.55
2019-02-26T01:54:00.747Z,100404.13
2019-02-26T01:57:08.569Z,100396.80
2019-02-26T02:00:15.450Z,100385.89
2019-02-26T02:03:23.005Z,100381.51
2019-02-26T02:06:30.364Z,100367.71
2019-02-26T02:09:36.455Z,100357.95
2019-02-26T02:12:42.210Z,100361.64
2019-02-26T02:15:48.019Z,100365.58
2019-02-26T02:18:55.343Z,100342.35
2019-02-26T02:22:01.247Z,100330.29
2019-02-26T02:25:07.923Z,100336.08
2019-02-26T02:28:13.701Z,100324.17
2019-02-26T02:31:22.017Z,100325.75
2019-02-26T02:34:29.570Z,100316.83
2019-02-26T02:37:34.513Z,100316.38
2019-02-26T02:40:42.991Z,100307.34
2019-02-26T02:43:47.768Z,100306.97
2019-02-26T02:46:53.533Z,100317.06
2019-02-26T02:49:59.298Z,100311.74
2019-02-26T02:53:05.219Z,100301.66
2019-02-26T02:56:12.898Z,100297.66
2019-02-26T02:59:18.477Z,100300.41
2019-02-26T03:02:24.287Z,100303.44
2019-02-26T03:05:32.098Z,100305.34
2019-02-26T03:08:39.394Z,100308.88
2019-02-26T03:11:46.481Z,100303.35
2019-02-26T03:14:52.463Z,100309.20
2019-02-26T03:17:58.208Z,100305.70
2019-02-26T03:21:04.873Z,100288.35
2019-02-26T03:24:10.791Z,100288.66
2019-02-26T03:27:16.588Z,100286.69
2019-02-26T03:30:31.941Z,100279.02
2019-02-26T03:33:30.043Z,100264.48
2019-02-26T03:36:38.265Z,100269.77
2019-02-26T03:39:43.521Z,100257.50
2019-02-26T03:42:49.266Z,100259.78
2019-02-26T03:45:55.061Z,100266.00
2019-02-26T03:49:02.703Z,100260.56
2019-02-26T03:52:08.363Z,100271.92
2019-02-26T03:55:17.882Z,100273.36
2019-02-26T03:58:21.878Z,100273.27
2019-02-26T04:01:27.871Z,100267.20
2019-02-26T04:04:33.805Z,100265.02
2019-02-26T04:07:39.804Z,100256.36
2019-02-26T04:10:47.570Z,100256.72
2019-02-26T04:13:54.556Z,100250.44
2019-02-26T04:17:03.020Z,100261.16
2019-02-26T04:20:09.202Z,100255.70
2019-02-26T04:23:18.712Z,100237.66
2019-02-26T04:26:48.867Z,100246.38
2019-02-26T04:30:45.289Z,100248.95
2019-02-26T04:34:18.514Z,100242.43
2019-02-26T04:38:32.879Z,100244.69
2019-02-26T04:41:49.897Z,100242.02
2019-02-26T04:45:26.772Z,100242.27
2019-02-26T04:48:34.632Z,100245.31
2019-02-26T04:51:42.684Z,100236.73
2019-02-26T04:54:48.072Z,100244.53
2019-02-26T04:57:56.143Z,100242.89
2019-02-26T05:01:02.013Z,100256.91
2019-02-26T05:04:07.823Z,100254.84
2019-02-26T05:07:16.320Z,100254.02
2019-02-26T05:10:24.265Z,100243.80
2019-02-26T05:13:32.149Z,100236.38
2019-02-26T05:16:40.187Z,100236.36
2019-02-26T05:19:48.268Z,100230.16
2019-02-26T05:22:58.461Z,100223.40
2019-02-26T05:26:05.225Z,100222.56
2019-02-26T05:29:13.978Z,100218.03
2019-02-26T05:32:21.801Z,100217.05
2019-02-26T05:35:27.231Z,100211.52
2019-02-26T05:38:34.872Z,100208.84
2019-02-26T05:41:40.817Z,100208.59
2019-02-26T05:44:46.650Z,100203.44
2019-02-26T05:47:54.739Z,100210.44
2019-02-26T05:51:02.954Z,100213.02
2019-02-26T05:54:08.173Z,100216.40
2019-02-26T05:57:27.208Z,100208.08
2019-02-26T06:00:26.336Z,100200.02
2019-02-26T06:03:30.177Z,100189.55
2019-02-26T06:06:35.936Z,100181.04
2019-02-26T06:09:42.698Z,100176.70
2019-02-26T06:12:48.493Z,100177.26
2019-02-26T06:15:55.279Z,100187.75
2019-02-26T06:19:01.759Z,100192.00
2019-02-26T06:22:11.590Z,100188.78
2019-02-26T06:25:22.790Z,100193.14
2019-02-26T06:28:23.732Z,100189.23
2019-02-26T06:31:29.641Z,100188.03
2019-02-26T06:34:35.432Z,100199.93
2019-02-26T06:37:41.346Z,100196.73
2019-02-26T06:40:48.976Z,100189.73
2019-02-26T06:43:55.113Z,100204.26
2019-02-26T06:47:02.616Z,100204.05
2019-02-26T06:50:11.127Z,100198.91
2019-02-26T06:53:20.977Z,100202.98
2019-02-26T06:56:24.261Z,100193.55
2019-02-26T06:59:33.799Z,100190.98
2019-02-26T07:02:38.523Z,100184.85
2019-02-26T07:05:46.467Z,100176.98
2019-02-26T07:08:53.481Z,100178.06
2019-02-26T07:11:59.588Z,100178.65
2019-02-26T07:15:06.048Z,100170.87
2019-02-26T07:18:16.354Z,100167.00
2019-02-26T07:21:19.317Z,100164.95
2019-02-26T07:24:27.045Z,100165.21
2019-02-26T07:27:34.189Z,100161.02
2019-02-26T07:30:42.288Z,100161.56
2019-02-26T07:33:47.633Z,100161.41
2019-02-26T07:36:53.546Z,100151.80
2019-02-26T07:39:59.334Z,100142.58
2019-02-26T07:43:09.106Z,100139.05
2019-02-26T07:46:14.600Z,100131.38
2019-02-26T07:49:20.282Z,100124.66
2019-02-26T07:52:28.304Z,100121.09
2019-02-26T07:55:35.361Z,100127.36
2019-02-26T07:58:42.965Z,100117.52
2019-02-26T08:01:49.743Z,100104.20
2019-02-26T08:04:55.638Z,100114.02
2019-02-26T08:08:01.409Z,100104.78
2019-02-26T08:11:07.185Z,100108.92
2019-02-26T08:14:14.340Z,100102.09
2019-02-26T08:17:20.526Z,100093.33
2019-02-26T08:20:27.906Z,100089.77
2019-02-26T08:23:33.795Z,100084.77
2019-02-26T08:26:40.479Z,100097.50
2019-02-26T08:29:47.108Z,100084.87
2019-02-26T08:32:54.261Z,100093.02
2019-02-26T08:36:00.458Z,100082.20
2019-02-26T08:39:08.445Z,100073.97
2019-02-26T08:42:15.134Z,100071.27
2019-02-26T08:45:23.560Z,100055.94
2019-02-26T08:48:28.778Z,100066.30
2019-02-26T08:51:34.544Z,100056.15
2019-02-26T08:54:40.321Z,100063.66
2019-02-26T08:57:46.118Z,100063.70
2019-02-26T09:00:51.880Z,100059.20
2019-02-26T09:03:58.952Z,100047.80
2019-02-26T09:07:05.363Z,100040.91
2019-02-26T09:10:13.076Z,100041.24
2019-02-26T09:13:19.224Z,100047.08
2019-02-26T09:16:27.666Z,100040.08
2019-02-26T09:19:35.438Z,100028.67
2019-02-26T09:22:45.714Z,100023.41
2019-02-26T09:25:51.538Z,100022.09
2019-02-26T09:28:57.153Z,100004.33
2019-02-26T09:32:06.723Z,99995.74
2019-02-26T09:35:12.103Z,99986.31
2019-02-26T09:38:20.085Z,99985.83
2019-02-26T09:41:25.342Z,99970.48
2019-02-26T09:44:33.209Z,99963.54
2019-02-26T09:47:38.575Z,99963.54
2019-02-26T09:50:46.334Z,99955.84
2019-02-26T09:53:54.805Z,99942.73
2019-02-26T09:57:00.489Z,99936.94
2019-02-26T10:00:09.735Z,99925.80
2019-02-26T10:03:15.502Z,99923.04
2019-02-26T10:06:23.476Z,99908.07
2019-02-26T10:09:28.747Z,99893.09
2019-02-26T10:12:35.105Z,99888.09
2019-02-26T10:15:42.805Z,99871.41
2019-02-26T10:18:51.402Z,99863.59
2019-02-26T10:21:58.117Z,99854.32
2019-02-26T10:25:04.892Z,99845.40
2019-02-26T10:28:11.714Z,99839.74
2019-02-26T10:31:18.105Z,99838.72
2019-02-26T10:34:28.143Z,99826.06
2019-02-26T10:37:33.642Z,99817.23
2019-02-26T10:40:50.739Z,99828.67
2019-02-26T10:43:46.451Z,99817.06
2019-02-26T10:46:52.223Z,99815.48
2019-02-26T10:49:58.007Z,99801.77
2019-02-26T10:53:09.647Z,99801.02
2019-02-26T10:56:11.339Z,99788.73
2019-02-26T10:59:19.572Z,99781.66
2019-02-26T11:02:27.890Z,99776.21
2019-02-26T11:05:33.215Z,99769.02
2019-02-26T11:08:39.071Z,99772.33
2019-02-26T11:11:44.943Z,99764.42
2019-02-26T11:14:50.724Z,99753.98
2019-02-26T11:17:56.496Z,99744.78
2019-02-26T11:21:02.287Z,99744.78
2019-02-26T11:24:08.743Z,99733.03
2019-02-26T11:27:17.206Z,99741.33
2019-02-26T11:30:25.870Z,99741.73
2019-02-26T11:33:30.678Z,99738.55
2019-02-26T11:36:38.372Z,99726.44
2019-02-26T11:39:43.945Z,99730.14
2019-02-26T11:42:51.234Z,99728.48
2019-02-26T11:45:59.174Z,99724.89
2019-02-26T11:49:04.796Z,99706.44
2019-02-26T11:52:10.576Z,99696.80
2019-02-26T11:55:16.725Z,99686.88
2019-02-26T11:58:24.252Z,99659.86
2019-02-26T12:01:32.217Z,99653.66
2019-02-26T12:04:37.719Z,99637.61
2019-02-26T12:07:43.570Z,99618.23
2019-02-26T12:10:52.192Z,99618.08
2019-02-26T12:13:56.942Z,99610.03
2019-02-26T12:17:02.748Z,99602.88
2019-02-26T12:20:12.074Z,99592.38
2019-02-26T12:23:19.914Z,99585.84
2019-02-26T12:26:27.967Z,99578.45
2019-02-26T12:29:33.800Z,99571.08
2019-02-26T12:32:41.298Z,99576.58
2019-02-26T12:35:47.029Z,99564.70
2019-02-26T12:38:53.670Z,99571.45
2019-02-26T12:42:01.440Z,99558.77
2019-02-26T12:45:10.086Z,99551.84
2019-02-26T12:48:19.144Z,99546.09
2019-02-26T12:51:25.264Z,99533.71
2019-02-26T12:54:33.271Z,99536.26
2019-02-26T12:57:38.081Z,99532.85
2019-02-26T13:00:43.842Z,99512.99
2019-02-26T13:06:57.106Z,99515.83
2019-02-26T13:10:04.116Z,99511.03
2019-02-26T13:13:11.386Z,99502.36
2019-02-26T13:16:17.131Z,99503.43
2019-02-26T13:19:29.220Z,99491.47
2019-02-26T13:22:30.412Z,99491.06
2019-02-26T13:25:36.305Z,99492.93
2019-02-26T13:28:46.729Z,99491.30
2019-02-26T13:31:56.331Z,99489.85
2019-02-26T13:35:00.782Z,99484.57
2019-02-26T13:38:04.747Z,99473.15
2019-02-26T13:44:18.240Z,99471.95
2019-02-26T13:47:25.217Z,99450.66
2019-02-26T13:50:31.270Z,99444.07
2019-02-26T13:53:37.045Z,99438.09
2019-02-26T13:56:42.828Z,99417.98
2019-02-26T13:59:48.613Z,99409.61
2019-02-26T14:02:54.485Z,99415.19
2019-02-26T14:06:00.272Z,99405.64
2019-02-26T14:09:07.896Z,99399.25
2019-02-26T14:12:14.483Z,99381.90
2019-02-26T14:15:22.230Z,99374.73
2019-02-26T14:18:28.314Z,99389.47
2019-02-26T14:21:34.076Z,99390.87
2019-02-26T14:24:39.841Z,99376.20
2019-02-26T14:27:45.719Z,99364.79
2019-02-26T14:30:51.799Z,99354.62
2019-02-26T14:33:57.571Z,99356.61
2019-02-26T14:37:03.407Z,99355.33
2019-02-26T14:40:11.363Z,99344.54
2019-02-26T14:43:17.157Z,99346.60
2019-02-26T14:46:22.932Z,99329.54
2019-02-26T14:49:28.851Z,99321.07
2019-02-26T14:52:34.714Z,99308.87
2019-02-26T14:55:40.566Z,99304.30
2019-02-26T14:58:46.345Z,99299.07
2019-02-26T15:01:52.124Z,99292.14
2019-02-26T15:04:57.959Z,99278.06
2019-02-26T15:08:03.772Z,99279.03
2019-02-26T15:11:09.533Z,99268.45
2019-02-26T15:14:15.578Z,99259.29
2019-02-26T15:17:21.379Z,99250.15
2019-02-26T15:20:28.585Z,99239.02
2019-02-26T15:23:34.398Z,99231.16
2019-02-26T15:26:40.202Z,99230.61
2019-02-26T15:29:47.437Z,99237.00
2019-02-26T15:32:55.800Z,99224.57
2019-02-26T15:36:02.045Z,99216.40
2019-02-26T15:39:09.243Z,99239.68
2019-02-26T15:42:15.140Z,99246.34
2019-02-26T15:45:23.946Z,99252.48
2019-02-26T15:48:29.371Z,99245.53
2019-02-26T15:51:35.126Z,99250.03
2019-02-26T15:54:40.904Z,99251.30
2019-02-26T15:57:46.739Z,99248.69
2019-02-26T16:00:52.600Z,99259.88
2019-02-26T16:03:58.389Z,99250.35
2019-02-26T16:07:04.286Z,99261.43
2019-02-26T16:10:10.995Z,99257.95
2019-02-26T16:13:16.871Z,99254.91
2019-02-26T16:16:22.655Z,99271.25
2019-02-26T16:19:28.459Z,99276.81
2019-02-26T16:22:37.361Z,99278.77
2019-02-26T16:25:45.562Z,99286.08
2019-02-26T16:28:51.302Z,99302.70
2019-02-26T16:31:57.357Z,99312.39
2019-02-26T16:35:03.135Z,99321.47
2019-02-26T16:38:09.028Z,99332.34
2019-02-26T16:41:15.019Z,99334.44
2019-02-26T16:44:22.543Z,99341.73
2019-02-26T16:47:28.421Z,99348.02
2019-02-26T16:50:34.411Z,99356.78
2019-02-26T16:53:41.286Z,99364.44
2019-02-26T16:56:47.198Z,99362.66
2019-02-26T16:59:52.969Z,99365.38
2019-02-26T17:03:00.772Z,99372.36
2019-02-26T17:06:06.826Z,99381.78
2019-02-26T17:09:12.991Z,99387.05
2019-02-26T17:12:18.849Z,99393.03
2019-02-26T17:15:27.075Z,99392.84
2019-02-26T17:18:33.035Z,99397.25
2019-02-26T17:21:38.803Z,99401.61
2019-02-26T17:24:44.621Z,99396.94
2019-02-26T17:27:50.719Z,99399.19
2019-02-26T17:30:57.763Z,99418.01
2019-02-26T17:34:04.450Z,99419.91
2019-02-26T17:37:10.263Z,99427.67
2019-02-26T17:40:17.563Z,99429.25
2019-02-26T17:43:25.193Z,99435.25
2019-02-26T17:46:31.025Z,99432.13
2019-02-26T17:49:36.913Z,99432.98
2019-02-26T17:52:42.672Z,99431.70
2019-02-26T17:55:48.577Z,99436.09
2019-02-26T17:58:54.380Z,99448.09
2019-02-26T18:02:00.292Z,99445.01
2019-02-26T18:05:06.673Z,99439.33
2019-02-26T18:08:16.758Z,99438.42
2019-02-26T18:11:23.367Z,99438.98
2019-02-26T18:14:27.545Z,99443.16
2019-02-26T18:17:33.344Z,99461.03
2019-02-26T18:20:40.716Z,99476.25
2019-02-26T18:23:46.663Z,99481.14
2019-02-26T18:26:52.609Z,99473.22
2019-02-26T18:29:58.378Z,99490.13
2019-02-26T18:33:04.654Z,99495.62
2019-02-26T18:36:10.603Z,99496.64
2019-02-26T18:39:16.547Z,99484.05
2019-02-26T18:42:22.535Z,99485.83
2019-02-26T18:45:29.049Z,99496.09
2019-02-26T18:48:35.091Z,99493.02
2019-02-26T18:51:40.970Z,99496.71
2019-02-26T18:54:46.748Z,99502.55
2019-02-26T18:57:54.398Z,99505.08
2019-02-26T19:01:00.111Z,99509.77
2019-02-26T19:04:06.259Z,99505.37
2019-02-26T19:07:12.028Z,99500.17
2019-02-26T19:10:20.756Z,99502.50
2019-02-26T19:13:26.710Z,99509.11
2019-02-26T19:16:32.477Z,99506.05
2019-02-26T19:19:39.715Z,99506.48
2019-02-26T19:22:51.860Z,99491.31
2019-02-26T19:25:58.371Z,99492.16
2019-02-26T19:29:04.162Z,99488.70
2019-02-26T19:32:10.101Z,99489.45
2019-02-26T19:35:16.019Z,99490.21
2019-02-26T19:38:21.812Z,99493.55
2019-02-26T19:41:27.821Z,99495.77
2019-02-26T19:44:35.891Z,99492.45
2019-02-26T19:47:41.294Z,99495.81
2019-02-26T19:50:48.711Z,99498.96
2019-02-26T19:53:54.564Z,99501.41
2019-02-26T19:57:00.386Z,99505.27
2019-02-26T20:00:07.214Z,99516.50
2019-02-26T20:03:14.566Z,99514.44
2019-02-26T20:06:23.270Z,99515.05
2019-02-26T20:09:29.034Z,99514.84
2019-02-26T20:12:34.799Z,99523.50
2019-02-26T20:15:40.584Z,99516.42
2019-02-26T20:18:46.479Z,99524.33
2019-02-26T20:21:54.305Z,99524.43
2019-02-26T20:25:01.831Z,99526.17
2019-02-26T20:28:08.634Z,99518.16
2019-02-26T20:31:14.440Z,99526.73
2019-02-26T20:34:20.335Z,99529.86
2019-02-26T20:37:26.147Z,99534.44
2019-02-26T20:40:31.999Z,99531.20
2019-02-26T20:43:37.848Z,99529.69
2019-02-26T20:46:43.633Z,99535.30
2019-02-26T20:49:49.437Z,99526.28
2019-02-26T20:52:55.209Z,99529.87
2019-02-26T20:56:01.137Z,99525.01
2019-02-26T20:59:08.199Z,99530.69
2019-02-26T21:02:14.092Z,99532.38
2019-02-26T21:05:20.011Z,99521.08
2019-02-26T21:08:26.158Z,99523.63
2019-02-26T21:11:32.167Z,99525.67
2019-02-26T21:14:41.083Z,99524.28
2019-02-26T21:17:46.928Z,99532.56
2019-02-26T21:20:52.824Z,99524.96
2019-02-26T21:24:00.917Z,99528.13
2019-02-26T21:27:06.506Z,99522.42
2019-02-26T21:30:14.589Z,99526.17
2019-02-26T21:33:20.552Z,99526.00
2019-02-26T21:36:27.903Z,99528.78
2019-02-26T21:39:34.071Z,99538.11
2019-02-26T21:42:39.867Z,99533.73
2019-02-26T21:45:49.170Z,99523.99
2019-02-26T21:48:53.114Z,99523.42
2019-02-26T21:51:59.038Z,99528.54
2019-02-26T21:55:05.171Z,99532.56
2019-02-26T21:58:11.122Z,99546.94
2019-02-26T22:01:16.879Z,99545.78
2019-02-26T22:04:22.827Z,99547.30
2019-02-26T22:07:28.662Z,99550.93
2019-02-26T22:10:34.484Z,99552.39
2019-02-26T22:13:40.253Z,99561.93
2019-02-26T22:16:46.100Z,99556.62
2019-02-26T22:19:51.908Z,99554.46
2019-02-26T22:23:00.175Z,99558.27
2019-02-26T22:26:05.227Z,99549.20
2019-02-26T22:29:12.934Z,99546.77
2019-02-26T22:32:18.520Z,99539.44
2019-02-26T22:35:25.937Z,99534.09
2019-02-26T22:38:31.787Z,99537.88
2019-02-26T22:41:37.542Z,99536.39
2019-02-26T22:44:43.293Z,99547.39
2019-02-26T22:47:50.146Z,99548.80
2019-02-26T22:50:59.529Z,99553.38
2019-02-26T22:54:03.394Z,99556.99
2019-02-26T22:57:09.149Z,99559.11
2019-02-26T23:01:14.982Z,99560.98
2019-02-26T23:04:25.280Z,99563.67
2019-02-26T23:07:31.175Z,99556.77
2019-02-26T23:10:37.160Z,99560.80
2019-02-26T23:13:43.812Z,99562.04
2019-02-26T23:16:51.929Z,99561.02
2019-02-26T23:19:57.784Z,99568.62
2019-02-26T23:23:03.872Z,99569.56
2019-02-26T23:26:09.877Z,99568.11
2019-02-26T23:29:16.054Z,99573.05
2019-02-26T23:32:23.546Z,99571.23
2019-02-26T23:35:29.523Z,99566.98
2019-02-26T23:38:35.277Z,99567.98
2019-02-26T23:41:41.131Z,99561.95
2019-02-26T23:44:50.849Z,99570.69
2019-02-26T23:47:54.597Z,99567.73
2019-02-26T23:51:00.525Z,99568.94
2019-02-26T23:54:07.355Z,99555.08
2019-02-26T23:57:13.945Z,99555.20
